sensor_id;sensor_type;location;lat;lon;timestamp;P1;durP1;ratioP1;P2;durP2;ratioP2
10596;SDS011;5346;48.766;8.674;2024-03-17T00:01:32;11.23;;;7.17;;
10596;SDS011;5346;48.766;8.674;2024-03-17T00:03:59;12.63;;;7.70;;
10596;SDS011;5346;48.766;8.674;2024-03-17T00:06:32;13.57;;;8.60;;
10596;SDS011;5346;48.766;8.674;2024-03-17T00:09:12;16.37;;;8.90;;
10596;SDS011;5346;48.766;8.674;2024-03-17T00:11:46;13.93;;;8.47;;
10596;SDS011;5346;48.766;8.674;2024-03-17T00:14:12;14.93;;;9.40;;
10596;SDS011;5346;48.766;8.674;2024-03-17T00:16:46;20.97;;;10.50;;
10596;SDS011;5346;48.766;8.674;2024-03-17T00:19:14;17.47;;;10.23;;
10596;SDS011;5346;48.766;8.674;2024-03-17T00:21:48;15.80;;;10.33;;
10596;SDS011;5346;48.766;8.674;2024-03-17T00:24:25;19.23;;;10.83;;
10596;SDS011;5346;48.766;8.674;2024-03-17T00:27:02;20.53;;;11.20;;
10596;SDS011;5346;48.766;8.674;2024-03-17T00:29:36;23.03;;;10.37;;
10596;SDS011;5346;48.766;8.674;2024-03-17T00:32:05;19.77;;;11.17;;
10596;SDS011;5346;48.766;8.674;2024-03-17T00:34:32;24.07;;;12.27;;
10596;SDS011;5346;48.766;8.674;2024-03-17T00:37:06;22.30;;;11.47;;
10596;SDS011;5346;48.766;8.674;2024-03-17T00:39:33;20.30;;;11.70;;
10596;SDS011;5346;48.766;8.674;2024-03-17T00:42:06;26.40;;;11.87;;
10596;SDS011;5346;48.766;8.674;2024-03-17T00:44:33;22.17;;;12.23;;
10596;SDS011;5346;48.766;8.674;2024-03-17T00:47:00;21.17;;;12.00;;
10596;SDS011;5346;48.766;8.674;2024-03-17T00:49:36;26.10;;;11.90;;
10596;SDS011;5346;48.766;8.674;2024-03-17T00:52:09;24.90;;;12.37;;
10596;SDS011;5346;48.766;8.674;2024-03-17T00:54:35;23.23;;;12.03;;
10596;SDS011;5346;48.766;8.674;2024-03-17T00:57:10;25.73;;;13.07;;
10596;SDS011;5346;48.766;8.674;2024-03-17T00:59:37;23.37;;;12.83;;
10596;SDS011;5346;48.766;8.674;2024-03-17T01:02:11;22.17;;;12.77;;
10596;SDS011;5346;48.766;8.674;2024-03-17T01:04:45;24.63;;;13.47;;
10596;SDS011;5346;48.766;8.674;2024-03-17T01:07:18;29.10;;;13.83;;
10596;SDS011;5346;48.766;8.674;2024-03-17T01:09:51;26.17;;;13.60;;
10596;SDS011;5346;48.766;8.674;2024-03-17T01:12:26;24.87;;;13.53;;
10596;SDS011;5346;48.766;8.674;2024-03-17T01:14:52;24.43;;;13.90;;
10596;SDS011;5346;48.766;8.674;2024-03-17T01:17:25;22.40;;;13.87;;
10596;SDS011;5346;48.766;8.674;2024-03-17T01:20:04;30.17;;;14.40;;
10596;SDS011;5346;48.766;8.674;2024-03-17T01:22:38;26.93;;;13.83;;
10596;SDS011;5346;48.766;8.674;2024-03-17T01:25:11;23.73;;;13.10;;
10596;SDS011;5346;48.766;8.674;2024-03-17T01:27:44;29.43;;;15.27;;
10596;SDS011;5346;48.766;8.674;2024-03-17T01:30:17;31.30;;;14.57;;
10596;SDS011;5346;48.766;8.674;2024-03-17T01:32:47;28.67;;;14.93;;
10596;SDS011;5346;48.766;8.674;2024-03-17T01:35:21;35.53;;;16.73;;
10596;SDS011;5346;48.766;8.674;2024-03-17T01:37:55;30.80;;;15.47;;
10596;SDS011;5346;48.766;8.674;2024-03-17T01:40:28;31.13;;;15.10;;
10596;SDS011;5346;48.766;8.674;2024-03-17T01:42:55;33.13;;;15.00;;
10596;SDS011;5346;48.766;8.674;2024-03-17T01:45:34;35.63;;;17.00;;
10596;SDS011;5346;48.766;8.674;2024-03-17T01:48:19;31.67;;;15.73;;
10596;SDS011;5346;48.766;8.674;2024-03-17T01:50:53;31.93;;;15.93;;
10596;SDS011;5346;48.766;8.674;2024-03-17T01:53:23;34.27;;;15.90;;
10596;SDS011;5346;48.766;8.674;2024-03-17T01:56:00;32.90;;;15.53;;
10596;SDS011;5346;48.766;8.674;2024-03-17T01:58:29;29.57;;;15.63;;
10596;SDS011;5346;48.766;8.674;2024-03-17T02:01:03;32.23;;;14.70;;
10596;SDS011;5346;48.766;8.674;2024-03-17T02:03:36;30.97;;;14.33;;
10596;SDS011;5346;48.766;8.674;2024-03-17T02:06:07;23.93;;;13.23;;
10596;SDS011;5346;48.766;8.674;2024-03-17T02:08:52;34.10;;;14.87;;
10596;SDS011;5346;48.766;8.674;2024-03-17T02:11:34;27.83;;;14.27;;
10596;SDS011;5346;48.766;8.674;2024-03-17T02:14:07;23.17;;;13.73;;
10596;SDS011;5346;48.766;8.674;2024-03-17T02:16:34;27.03;;;13.70;;
10596;SDS011;5346;48.766;8.674;2024-03-17T02:19:07;28.50;;;13.00;;
10596;SDS011;5346;48.766;8.674;2024-03-17T02:21:34;22.87;;;12.83;;
10596;SDS011;5346;48.766;8.674;2024-03-17T02:24:09;26.03;;;13.87;;
10596;SDS011;5346;48.766;8.674;2024-03-17T02:26:36;26.80;;;13.10;;
10596;SDS011;5346;48.766;8.674;2024-03-17T02:29:10;23.60;;;12.87;;
10596;SDS011;5346;48.766;8.674;2024-03-17T02:31:43;24.87;;;13.67;;
10596;SDS011;5346;48.766;8.674;2024-03-17T02:34:16;27.53;;;12.13;;
10596;SDS011;5346;48.766;8.674;2024-03-17T02:36:57;22.33;;;12.33;;
10596;SDS011;5346;48.766;8.674;2024-03-17T02:39:24;34.37;;;13.50;;
10596;SDS011;5346;48.766;8.674;2024-03-17T02:42:30;23.20;;;13.30;;
10596;SDS011;5346;48.766;8.674;2024-03-17T02:45:11;22.63;;;12.93;;
10596;SDS011;5346;48.766;8.674;2024-03-17T02:47:47;28.83;;;14.10;;
10596;SDS011;5346;48.766;8.674;2024-03-17T02:50:23;28.57;;;14.53;;
10596;SDS011;5346;48.766;8.674;2024-03-17T02:52:58;25.47;;;14.27;;
10596;SDS011;5346;48.766;8.674;2024-03-17T02:55:28;34.33;;;15.50;;
10596;SDS011;5346;48.766;8.674;2024-03-17T02:58:13;24.97;;;13.83;;
10596;SDS011;5346;48.766;8.674;2024-03-17T03:00:55;26.03;;;12.90;;
10596;SDS011;5346;48.766;8.674;2024-03-17T03:03:23;20.90;;;12.17;;
10596;SDS011;5346;48.766;8.674;2024-03-17T03:06:09;22.27;;;12.83;;
10596;SDS011;5346;48.766;8.674;2024-03-17T03:08:43;24.63;;;13.20;;
10596;SDS011;5346;48.766;8.674;2024-03-17T03:11:26;26.33;;;13.27;;
10596;SDS011;5346;48.766;8.674;2024-03-17T03:14:05;25.47;;;13.47;;
10596;SDS011;5346;48.766;8.674;2024-03-17T03:16:42;20.93;;;13.33;;
10596;SDS011;5346;48.766;8.674;2024-03-17T03:19:18;24.53;;;14.40;;
10596;SDS011;5346;48.766;8.674;2024-03-17T03:21:53;29.40;;;14.53;;
10596;SDS011;5346;48.766;8.674;2024-03-17T03:24:20;26.17;;;13.57;;
10596;SDS011;5346;48.766;8.674;2024-03-17T03:26:54;26.87;;;13.63;;
10596;SDS011;5346;48.766;8.674;2024-03-17T03:29:21;22.07;;;13.53;;
10596;SDS011;5346;48.766;8.674;2024-03-17T03:31:55;28.57;;;14.20;;
10596;SDS011;5346;48.766;8.674;2024-03-17T03:34:24;23.90;;;12.53;;
10596;SDS011;5346;48.766;8.674;2024-03-17T03:37:07;26.03;;;13.57;;
10596;SDS011;5346;48.766;8.674;2024-03-17T03:39:43;28.73;;;14.00;;
10596;SDS011;5346;48.766;8.674;2024-03-17T03:42:22;25.10;;;13.23;;
10596;SDS011;5346;48.766;8.674;2024-03-17T03:44:48;23.30;;;12.90;;
10596;SDS011;5346;48.766;8.674;2024-03-17T03:47:17;29.33;;;13.23;;
10596;SDS011;5346;48.766;8.674;2024-03-17T03:49:50;24.73;;;13.67;;
10596;SDS011;5346;48.766;8.674;2024-03-17T03:52:17;22.20;;;13.63;;
10596;SDS011;5346;48.766;8.674;2024-03-17T03:54:50;21.93;;;13.33;;
10596;SDS011;5346;48.766;8.674;2024-03-17T03:57:17;24.40;;;13.53;;
10596;SDS011;5346;48.766;8.674;2024-03-17T03:59:50;21.90;;;12.70;;
10596;SDS011;5346;48.766;8.674;2024-03-17T04:02:17;21.47;;;13.20;;
10596;SDS011;5346;48.766;8.674;2024-03-17T04:04:43;26.33;;;14.30;;
10596;SDS011;5346;48.766;8.674;2024-03-17T04:07:23;23.47;;;13.90;;
10596;SDS011;5346;48.766;8.674;2024-03-17T04:09:57;26.83;;;13.17;;
10596;SDS011;5346;48.766;8.674;2024-03-17T04:12:39;29.40;;;13.53;;
10596;SDS011;5346;48.766;8.674;2024-03-17T04:15:15;21.70;;;12.87;;
10596;SDS011;5346;48.766;8.674;2024-03-17T04:17:41;22.57;;;13.37;;
10596;SDS011;5346;48.766;8.674;2024-03-17T04:20:14;23.67;;;13.80;;
10596;SDS011;5346;48.766;8.674;2024-03-17T04:22:47;20.43;;;13.27;;
10596;SDS011;5346;48.766;8.674;2024-03-17T04:25:14;23.23;;;13.07;;
10596;SDS011;5346;48.766;8.674;2024-03-17T04:27:41;24.10;;;12.50;;
10596;SDS011;5346;48.766;8.674;2024-03-17T04:30:14;24.47;;;13.10;;
10596;SDS011;5346;48.766;8.674;2024-03-17T04:32:43;22.07;;;12.90;;
10596;SDS011;5346;48.766;8.674;2024-03-17T04:35:16;21.43;;;12.30;;
10596;SDS011;5346;48.766;8.674;2024-03-17T04:37:43;24.33;;;12.83;;
10596;SDS011;5346;48.766;8.674;2024-03-17T04:40:09;20.80;;;12.33;;
10596;SDS011;5346;48.766;8.674;2024-03-17T04:42:47;20.37;;;12.40;;
10596;SDS011;5346;48.766;8.674;2024-03-17T04:45:20;25.83;;;12.90;;
10596;SDS011;5346;48.766;8.674;2024-03-17T04:47:53;23.63;;;13.47;;
10596;SDS011;5346;48.766;8.674;2024-03-17T04:50:20;24.57;;;12.43;;
10596;SDS011;5346;48.766;8.674;2024-03-17T04:56:00;23.30;;;12.80;;
10596;SDS011;5346;48.766;8.674;2024-03-17T04:58:37;23.33;;;13.30;;
10596;SDS011;5346;48.766;8.674;2024-03-17T05:01:05;23.30;;;12.93;;
10596;SDS011;5346;48.766;8.674;2024-03-17T05:03:45;28.07;;;12.27;;
10596;SDS011;5346;48.766;8.674;2024-03-17T05:06:11;23.17;;;12.43;;
10596;SDS011;5346;48.766;8.674;2024-03-17T05:08:44;25.33;;;11.67;;
10596;SDS011;5346;48.766;8.674;2024-03-17T05:11:11;27.27;;;12.53;;
10596;SDS011;5346;48.766;8.674;2024-03-17T05:13:46;20.93;;;12.47;;
10596;SDS011;5346;48.766;8.674;2024-03-17T05:16:12;18.70;;;11.23;;
10596;SDS011;5346;48.766;8.674;2024-03-17T05:18:48;22.70;;;12.30;;
10596;SDS011;5346;48.766;8.674;2024-03-17T05:21:15;23.17;;;13.07;;
10596;SDS011;5346;48.766;8.674;2024-03-17T05:23:41;24.80;;;13.37;;
10596;SDS011;5346;48.766;8.674;2024-03-17T05:26:14;22.83;;;12.43;;
10596;SDS011;5346;48.766;8.674;2024-03-17T05:28:48;23.17;;;12.17;;
10596;SDS011;5346;48.766;8.674;2024-03-17T05:31:20;21.13;;;12.07;;
10596;SDS011;5346;48.766;8.674;2024-03-17T05:33:54;25.53;;;13.30;;
10596;SDS011;5346;48.766;8.674;2024-03-17T05:36:25;23.83;;;12.80;;
10596;SDS011;5346;48.766;8.674;2024-03-17T05:38:58;18.67;;;11.20;;
10596;SDS011;5346;48.766;8.674;2024-03-17T05:41:25;21.87;;;12.10;;
10596;SDS011;5346;48.766;8.674;2024-03-17T05:43:57;21.20;;;12.03;;
10596;SDS011;5346;48.766;8.674;2024-03-17T05:46:29;22.03;;;11.97;;
10596;SDS011;5346;48.766;8.674;2024-03-17T05:49:02;23.07;;;12.43;;
10596;SDS011;5346;48.766;8.674;2024-03-17T05:51:29;21.10;;;12.00;;
10596;SDS011;5346;48.766;8.674;2024-03-17T05:54:01;23.30;;;12.20;;
10596;SDS011;5346;48.766;8.674;2024-03-17T05:56:42;23.93;;;12.60;;
10596;SDS011;5346;48.766;8.674;2024-03-17T05:59:16;24.67;;;11.97;;
10596;SDS011;5346;48.766;8.674;2024-03-17T06:01:43;22.30;;;11.40;;
10596;SDS011;5346;48.766;8.674;2024-03-17T06:04:20;22.50;;;11.90;;
10596;SDS011;5346;48.766;8.674;2024-03-17T06:06:54;19.80;;;11.50;;
10596;SDS011;5346;48.766;8.674;2024-03-17T06:09:27;21.60;;;11.10;;
10596;SDS011;5346;48.766;8.674;2024-03-17T06:11:53;17.90;;;10.70;;
10596;SDS011;5346;48.766;8.674;2024-03-17T06:14:26;25.77;;;11.83;;
10596;SDS011;5346;48.766;8.674;2024-03-17T06:16:59;24.53;;;12.37;;
10596;SDS011;5346;48.766;8.674;2024-03-17T06:19:26;24.40;;;12.37;;
10596;SDS011;5346;48.766;8.674;2024-03-17T06:21:59;21.70;;;12.27;;
10596;SDS011;5346;48.766;8.674;2024-03-17T06:24:32;19.83;;;11.20;;
10596;SDS011;5346;48.766;8.674;2024-03-17T06:27:11;19.90;;;11.27;;
10596;SDS011;5346;48.766;8.674;2024-03-17T06:29:46;18.60;;;11.03;;
10596;SDS011;5346;48.766;8.674;2024-03-17T06:32:13;20.90;;;10.63;;
10596;SDS011;5346;48.766;8.674;2024-03-17T06:34:49;20.37;;;11.37;;
10596;SDS011;5346;48.766;8.674;2024-03-17T06:37:23;21.53;;;11.67;;
10596;SDS011;5346;48.766;8.674;2024-03-17T06:39:56;19.20;;;11.77;;
10596;SDS011;5346;48.766;8.674;2024-03-17T06:42:25;19.80;;;11.97;;
10596;SDS011;5346;48.766;8.674;2024-03-17T06:44:59;19.70;;;13.10;;
10596;SDS011;5346;48.766;8.674;2024-03-17T06:47:32;21.83;;;12.97;;
10596;SDS011;5346;48.766;8.674;2024-03-17T06:50:08;19.97;;;12.53;;
10596;SDS011;5346;48.766;8.674;2024-03-17T06:52:47;15.13;;;11.27;;
10596;SDS011;5346;48.766;8.674;2024-03-17T06:55:36;14.00;;;9.13;;
10596;SDS011;5346;48.766;8.674;2024-03-17T06:58:09;13.43;;;8.73;;
10596;SDS011;5346;48.766;8.674;2024-03-17T07:00:42;12.03;;;8.60;;
10596;SDS011;5346;48.766;8.674;2024-03-17T07:03:09;10.13;;;7.53;;
10596;SDS011;5346;48.766;8.674;2024-03-17T07:05:42;10.80;;;7.40;;
10596;SDS011;5346;48.766;8.674;2024-03-17T07:08:22;9.90;;;7.17;;
10596;SDS011;5346;48.766;8.674;2024-03-17T07:10:58;8.73;;;6.53;;
10596;SDS011;5346;48.766;8.674;2024-03-17T07:13:32;9.07;;;5.97;;
10596;SDS011;5346;48.766;8.674;2024-03-17T07:16:08;8.60;;;6.40;;
10596;SDS011;5346;48.766;8.674;2024-03-17T07:18:42;8.43;;;5.18;;
10596;SDS011;5346;48.766;8.674;2024-03-17T07:21:15;6.43;;;4.85;;
10596;SDS011;5346;48.766;8.674;2024-03-17T07:23:49;5.25;;;4.35;;
10596;SDS011;5346;48.766;8.674;2024-03-17T07:26:22;11.70;;;5.10;;
10596;SDS011;5346;48.766;8.674;2024-03-17T07:28:49;4.60;;;4.15;;
10596;SDS011;5346;48.766;8.674;2024-03-17T07:31:22;5.95;;;4.28;;
10596;SDS011;5346;48.766;8.674;2024-03-17T07:33:56;6.95;;;4.93;;
10596;SDS011;5346;48.766;8.674;2024-03-17T07:36:24;6.85;;;4.57;;
10596;SDS011;5346;48.766;8.674;2024-03-17T07:38:57;6.20;;;4.43;;
10596;SDS011;5346;48.766;8.674;2024-03-17T07:41:23;4.97;;;4.20;;
10596;SDS011;5346;48.766;8.674;2024-03-17T07:43:57;6.65;;;4.32;;
10596;SDS011;5346;48.766;8.674;2024-03-17T07:46:32;6.38;;;4.43;;
10596;SDS011;5346;48.766;8.674;2024-03-17T07:49:05;5.88;;;4.82;;
10596;SDS011;5346;48.766;8.674;2024-03-17T07:51:32;5.93;;;4.75;;
10596;SDS011;5346;48.766;8.674;2024-03-17T07:54:14;5.65;;;4.78;;
10596;SDS011;5346;48.766;8.674;2024-03-17T07:56:41;5.40;;;4.30;;
10596;SDS011;5346;48.766;8.674;2024-03-17T07:59:14;6.20;;;4.60;;
10596;SDS011;5346;48.766;8.674;2024-03-17T08:01:50;6.63;;;4.43;;
10596;SDS011;5346;48.766;8.674;2024-03-17T08:04:23;6.40;;;5.13;;
10596;SDS011;5346;48.766;8.674;2024-03-17T08:06:52;5.35;;;4.72;;
10596;SDS011;5346;48.766;8.674;2024-03-17T08:09:25;7.97;;;5.28;;
10596;SDS011;5346;48.766;8.674;2024-03-17T08:11:51;6.10;;;4.75;;
10596;SDS011;5346;48.766;8.674;2024-03-17T08:14:25;6.38;;;5.22;;
10596;SDS011;5346;48.766;8.674;2024-03-17T08:16:52;6.85;;;5.03;;
10596;SDS011;5346;48.766;8.674;2024-03-17T08:19:46;6.45;;;5.47;;
10596;SDS011;5346;48.766;8.674;2024-03-17T08:22:16;7.05;;;5.30;;
10596;SDS011;5346;48.766;8.674;2024-03-17T08:24:51;6.20;;;5.03;;
10596;SDS011;5346;48.766;8.674;2024-03-17T08:27:19;7.50;;;5.25;;
10596;SDS011;5346;48.766;8.674;2024-03-17T08:30:10;5.50;;;4.32;;
10596;SDS011;5346;48.766;8.674;2024-03-17T08:32:37;5.95;;;5.07;;
10596;SDS011;5346;48.766;8.674;2024-03-17T08:38:23;6.80;;;4.45;;
10596;SDS011;5346;48.766;8.674;2024-03-17T08:41:07;5.45;;;4.90;;
10596;SDS011;5346;48.766;8.674;2024-03-17T08:43:46;5.78;;;5.20;;
10596;SDS011;5346;48.766;8.674;2024-03-17T08:46:19;6.13;;;4.28;;
10596;SDS011;5346;48.766;8.674;2024-03-17T08:48:46;5.65;;;4.40;;
10596;SDS011;5346;48.766;8.674;2024-03-17T08:51:19;4.85;;;4.10;;
10596;SDS011;5346;48.766;8.674;2024-03-17T08:53:52;4.45;;;3.90;;
10596;SDS011;5346;48.766;8.674;2024-03-17T08:56:19;8.05;;;4.20;;
10596;SDS011;5346;48.766;8.674;2024-03-17T08:58:53;5.40;;;4.32;;
10596;SDS011;5346;48.766;8.674;2024-03-17T09:01:26;6.70;;;5.38;;
10596;SDS011;5346;48.766;8.674;2024-03-17T09:04:00;6.20;;;4.50;;
10596;SDS011;5346;48.766;8.674;2024-03-17T09:06:26;4.95;;;4.22;;
10596;SDS011;5346;48.766;8.674;2024-03-17T09:09:02;6.05;;;4.68;;
10596;SDS011;5346;48.766;8.674;2024-03-17T09:11:35;4.95;;;4.38;;
10596;SDS011;5346;48.766;8.674;2024-03-17T09:14:01;6.72;;;4.43;;
10596;SDS011;5346;48.766;8.674;2024-03-17T09:16:28;4.82;;;4.03;;
10596;SDS011;5346;48.766;8.674;2024-03-17T09:19:02;4.28;;;3.72;;
10596;SDS011;5346;48.766;8.674;2024-03-17T09:21:28;6.60;;;4.03;;
10596;SDS011;5346;48.766;8.674;2024-03-17T09:24:02;6.55;;;4.18;;
10596;SDS011;5346;48.766;8.674;2024-03-17T09:26:35;6.25;;;3.92;;
10596;SDS011;5346;48.766;8.674;2024-03-17T09:29:03;4.78;;;4.15;;
10596;SDS011;5346;48.766;8.674;2024-03-17T09:31:37;4.72;;;3.65;;
10596;SDS011;5346;48.766;8.674;2024-03-17T09:34:11;4.13;;;3.72;;
10596;SDS011;5346;48.766;8.674;2024-03-17T09:36:50;5.65;;;3.90;;
10596;SDS011;5346;48.766;8.674;2024-03-17T09:39:31;7.60;;;4.75;;
10596;SDS011;5346;48.766;8.674;2024-03-17T09:42:04;7.00;;;4.40;;
10596;SDS011;5346;48.766;8.674;2024-03-17T09:44:33;8.50;;;5.10;;
10596;SDS011;5346;48.766;8.674;2024-03-17T09:47:09;5.55;;;4.38;;
10596;SDS011;5346;48.766;8.674;2024-03-17T09:49:50;4.50;;;3.50;;
10596;SDS011;5346;48.766;8.674;2024-03-17T09:52:23;6.72;;;3.50;;
10596;SDS011;5346;48.766;8.674;2024-03-17T09:55:01;4.30;;;3.15;;
10596;SDS011;5346;48.766;8.674;2024-03-17T09:57:49;4.43;;;3.47;;
10596;SDS011;5346;48.766;8.674;2024-03-17T10:00:15;4.22;;;2.47;;
10596;SDS011;5346;48.766;8.674;2024-03-17T10:02:50;6.55;;;3.40;;
10596;SDS011;5346;48.766;8.674;2024-03-17T10:05:24;4.85;;;3.65;;
10596;SDS011;5346;48.766;8.674;2024-03-17T10:07:51;4.43;;;2.80;;
10596;SDS011;5346;48.766;8.674;2024-03-17T10:10:25;5.22;;;2.30;;
10596;SDS011;5346;48.766;8.674;2024-03-17T10:12:52;3.95;;;2.78;;
10596;SDS011;5346;48.766;8.674;2024-03-17T10:15:26;6.03;;;2.70;;
10596;SDS011;5346;48.766;8.674;2024-03-17T10:17:59;3.65;;;2.70;;
10596;SDS011;5346;48.766;8.674;2024-03-17T10:20:32;5.32;;;2.85;;
10596;SDS011;5346;48.766;8.674;2024-03-17T10:23:06;3.00;;;2.70;;
10596;SDS011;5346;48.766;8.674;2024-03-17T10:25:43;3.00;;;2.40;;
10596;SDS011;5346;48.766;8.674;2024-03-17T10:28:17;5.25;;;2.00;;
10596;SDS011;5346;48.766;8.674;2024-03-17T10:30:57;3.45;;;1.70;;
10596;SDS011;5346;48.766;8.674;2024-03-17T10:33:25;4.32;;;1.92;;
10596;SDS011;5346;48.766;8.674;2024-03-17T10:36:01;2.90;;;1.77;;
10596;SDS011;5346;48.766;8.674;2024-03-17T10:38:51;5.07;;;2.20;;
10596;SDS011;5346;48.766;8.674;2024-03-17T10:41:25;3.95;;;2.45;;
10596;SDS011;5346;48.766;8.674;2024-03-17T10:44:01;5.22;;;2.83;;
10596;SDS011;5346;48.766;8.674;2024-03-17T10:46:33;4.13;;;2.17;;
10596;SDS011;5346;48.766;8.674;2024-03-17T10:49:06;4.63;;;1.95;;
10596;SDS011;5346;48.766;8.674;2024-03-17T10:51:36;2.15;;;1.88;;
10596;SDS011;5346;48.766;8.674;2024-03-17T10:54:10;3.25;;;2.05;;
10596;SDS011;5346;48.766;8.674;2024-03-17T10:56:48;2.78;;;1.80;;
10596;SDS011;5346;48.766;8.674;2024-03-17T10:59:47;4.35;;;1.50;;
10596;SDS011;5346;48.766;8.674;2024-03-17T11:02:25;1.67;;;1.30;;
10596;SDS011;5346;48.766;8.674;2024-03-17T11:07:53;2.15;;;1.60;;
10596;SDS011;5346;48.766;8.674;2024-03-17T11:10:34;3.97;;;1.67;;
10596;SDS011;5346;48.766;8.674;2024-03-17T11:13:04;2.63;;;1.75;;
10596;SDS011;5346;48.766;8.674;2024-03-17T11:18:57;2.63;;;1.35;;
10596;SDS011;5346;48.766;8.674;2024-03-17T11:21:38;9.52;;;1.70;;
10596;SDS011;5346;48.766;8.674;2024-03-17T11:24:21;2.20;;;1.30;;
10596;SDS011;5346;48.766;8.674;2024-03-17T11:26:48;2.20;;;1.52;;
10596;SDS011;5346;48.766;8.674;2024-03-17T11:29:27;5.07;;;1.45;;
10596;SDS011;5346;48.766;8.674;2024-03-17T11:31:55;2.70;;;1.20;;
10596;SDS011;5346;48.766;8.674;2024-03-17T11:34:33;2.63;;;1.48;;
10596;SDS011;5346;48.766;8.674;2024-03-17T11:37:01;2.47;;;1.20;;
10596;SDS011;5346;48.766;8.674;2024-03-17T11:39:52;3.28;;;1.48;;
10596;SDS011;5346;48.766;8.674;2024-03-17T11:42:26;2.42;;;1.27;;
10596;SDS011;5346;48.766;8.674;2024-03-17T11:45:01;4.30;;;1.17;;
10596;SDS011;5346;48.766;8.674;2024-03-17T11:47:42;2.60;;;1.15;;
10596;SDS011;5346;48.766;8.674;2024-03-17T11:50:10;3.35;;;1.10;;
10596;SDS011;5346;48.766;8.674;2024-03-17T11:52:45;2.20;;;1.45;;
10596;SDS011;5346;48.766;8.674;2024-03-17T11:55:16;2.78;;;1.25;;
10596;SDS011;5346;48.766;8.674;2024-03-17T11:57:57;2.20;;;1.08;;
10596;SDS011;5346;48.766;8.674;2024-03-17T12:00:23;1.08;;;0.73;;
10596;SDS011;5346;48.766;8.674;2024-03-17T12:02:58;3.03;;;1.20;;
10596;SDS011;5346;48.766;8.674;2024-03-17T12:05:31;1.55;;;0.80;;
10596;SDS011;5346;48.766;8.674;2024-03-17T12:08:04;4.43;;;0.85;;
10596;SDS011;5346;48.766;8.674;2024-03-17T12:10:48;2.08;;;0.98;;
10596;SDS011;5346;48.766;8.674;2024-03-17T12:13:22;1.17;;;0.80;;
10596;SDS011;5346;48.766;8.674;2024-03-17T12:16:11;1.65;;;0.68;;
10596;SDS011;5346;48.766;8.674;2024-03-17T12:18:38;1.90;;;0.90;;
10596;SDS011;5346;48.766;8.674;2024-03-17T12:21:17;2.10;;;0.73;;
10596;SDS011;5346;48.766;8.674;2024-03-17T12:23:50;1.35;;;0.70;;
10596;SDS011;5346;48.766;8.674;2024-03-17T12:26:19;1.38;;;0.90;;
10596;SDS011;5346;48.766;8.674;2024-03-17T12:28:53;1.85;;;0.93;;
10596;SDS011;5346;48.766;8.674;2024-03-17T12:31:19;1.60;;;0.93;;
10596;SDS011;5346;48.766;8.674;2024-03-17T12:33:53;0.75;;;0.70;;
10596;SDS011;5346;48.766;8.674;2024-03-17T12:36:19;1.83;;;0.80;;
10596;SDS011;5346;48.766;8.674;2024-03-17T12:39:09;2.33;;;1.10;;
10596;SDS011;5346;48.766;8.674;2024-03-17T12:41:43;2.30;;;1.25;;
10596;SDS011;5346;48.766;8.674;2024-03-17T12:44:38;1.00;;;0.77;;
10596;SDS011;5346;48.766;8.674;2024-03-17T12:47:28;5.32;;;3.60;;
10596;SDS011;5346;48.766;8.674;2024-03-17T12:50:08;0.85;;;0.85;;
10596;SDS011;5346;48.766;8.674;2024-03-17T12:52:40;1.45;;;0.80;;
10596;SDS011;5346;48.766;8.674;2024-03-17T12:55:23;1.70;;;1.08;;
10596;SDS011;5346;48.766;8.674;2024-03-17T12:58:15;2.80;;;1.73;;
10596;SDS011;5346;48.766;8.674;2024-03-17T13:01:06;2.95;;;1.48;;
10596;SDS011;5346;48.766;8.674;2024-03-17T13:03:40;1.73;;;1.50;;
10596;SDS011;5346;48.766;8.674;2024-03-17T13:06:09;2.45;;;1.27;;
10596;SDS011;5346;48.766;8.674;2024-03-17T13:08:54;5.10;;;1.42;;
10596;SDS011;5346;48.766;8.674;2024-03-17T13:11:20;4.13;;;1.30;;
10596;SDS011;5346;48.766;8.674;2024-03-17T13:13:53;3.53;;;1.63;;
10596;SDS011;5346;48.766;8.674;2024-03-17T13:16:19;1.75;;;1.55;;
10596;SDS011;5346;48.766;8.674;2024-03-17T13:18:54;2.05;;;1.48;;
10596;SDS011;5346;48.766;8.674;2024-03-17T13:21:20;3.80;;;1.50;;
10596;SDS011;5346;48.766;8.674;2024-03-17T13:23:56;2.83;;;1.60;;
10596;SDS011;5346;48.766;8.674;2024-03-17T13:26:22;2.75;;;1.52;;
10596;SDS011;5346;48.766;8.674;2024-03-17T13:28:58;2.20;;;1.50;;
10596;SDS011;5346;48.766;8.674;2024-03-17T13:31:24;3.58;;;1.33;;
10596;SDS011;5346;48.766;8.674;2024-03-17T13:33:57;1.77;;;1.23;;
10596;SDS011;5346;48.766;8.674;2024-03-17T13:36:25;2.33;;;1.30;;
10596;SDS011;5346;48.766;8.674;2024-03-17T13:39:11;4.20;;;1.30;;
10596;SDS011;5346;48.766;8.674;2024-03-17T13:41:46;1.70;;;1.30;;
10596;SDS011;5346;48.766;8.674;2024-03-17T13:44:14;1.88;;;1.08;;
10596;SDS011;5346;48.766;8.674;2024-03-17T13:46:48;1.38;;;1.27;;
10596;SDS011;5346;48.766;8.674;2024-03-17T13:49:14;4.60;;;1.30;;
10596;SDS011;5346;48.766;8.674;2024-03-17T13:51:48;3.85;;;2.10;;
10596;SDS011;5346;48.766;8.674;2024-03-17T13:54:15;1.98;;;1.67;;
10596;SDS011;5346;48.766;8.674;2024-03-17T13:56:48;2.92;;;1.50;;
10596;SDS011;5346;48.766;8.674;2024-03-17T13:59:15;1.88;;;1.30;;
10596;SDS011;5346;48.766;8.674;2024-03-17T14:01:48;2.88;;;1.60;;
10596;SDS011;5346;48.766;8.674;2024-03-17T14:04:16;3.30;;;1.80;;
10596;SDS011;5346;48.766;8.674;2024-03-17T14:06:49;2.35;;;1.40;;
10596;SDS011;5346;48.766;8.674;2024-03-17T14:09:17;2.03;;;1.45;;
10596;SDS011;5346;48.766;8.674;2024-03-17T14:11:50;2.35;;;2.15;;
10596;SDS011;5346;48.766;8.674;2024-03-17T14:14:18;3.22;;;1.60;;
10596;SDS011;5346;48.766;8.674;2024-03-17T14:16:51;2.78;;;2.13;;
10596;SDS011;5346;48.766;8.674;2024-03-17T14:19:19;3.83;;;1.98;;
10596;SDS011;5346;48.766;8.674;2024-03-17T14:21:51;1.70;;;1.60;;
10596;SDS011;5346;48.766;8.674;2024-03-17T14:24:18;2.00;;;1.50;;
10596;SDS011;5346;48.766;8.674;2024-03-17T14:26:52;2.35;;;1.90;;
10596;SDS011;5346;48.766;8.674;2024-03-17T14:29:25;4.35;;;1.83;;
10596;SDS011;5346;48.766;8.674;2024-03-17T14:31:58;3.17;;;1.83;;
10596;SDS011;5346;48.766;8.674;2024-03-17T14:34:25;4.60;;;2.10;;
10596;SDS011;5346;48.766;8.674;2024-03-17T14:36:58;3.75;;;1.98;;
10596;SDS011;5346;48.766;8.674;2024-03-17T14:39:31;2.85;;;2.10;;
10596;SDS011;5346;48.766;8.674;2024-03-17T14:42:05;5.00;;;2.72;;
10596;SDS011;5346;48.766;8.674;2024-03-17T14:44:38;4.28;;;2.53;;
10596;SDS011;5346;48.766;8.674;2024-03-17T14:47:05;3.97;;;2.45;;
10596;SDS011;5346;48.766;8.674;2024-03-17T14:49:40;2.80;;;2.17;;
10596;SDS011;5346;48.766;8.674;2024-03-17T14:52:10;4.75;;;2.40;;
10596;SDS011;5346;48.766;8.674;2024-03-17T14:54:43;2.65;;;2.45;;
10596;SDS011;5346;48.766;8.674;2024-03-17T14:57:10;2.92;;;2.50;;
10596;SDS011;5346;48.766;8.674;2024-03-17T14:59:37;3.58;;;2.20;;
10596;SDS011;5346;48.766;8.674;2024-03-17T15:02:11;2.50;;;2.30;;
10596;SDS011;5346;48.766;8.674;2024-03-17T15:04:44;6.03;;;2.58;;
10596;SDS011;5346;48.766;8.674;2024-03-17T15:07:11;4.43;;;2.60;;
10596;SDS011;5346;48.766;8.674;2024-03-17T15:09:44;4.32;;;2.50;;
10596;SDS011;5346;48.766;8.674;2024-03-17T15:12:19;4.80;;;2.63;;
10596;SDS011;5346;48.766;8.674;2024-03-17T15:14:52;3.95;;;2.75;;
10596;SDS011;5346;48.766;8.674;2024-03-17T15:17:26;3.83;;;2.72;;
10596;SDS011;5346;48.766;8.674;2024-03-17T15:19:59;4.40;;;2.60;;
10596;SDS011;5346;48.766;8.674;2024-03-17T15:22:32;3.63;;;2.72;;
10596;SDS011;5346;48.766;8.674;2024-03-17T15:25:09;5.40;;;2.45;;
10596;SDS011;5346;48.766;8.674;2024-03-17T15:27:35;5.30;;;2.72;;
10596;SDS011;5346;48.766;8.674;2024-03-17T15:30:11;3.38;;;2.65;;
10596;SDS011;5346;48.766;8.674;2024-03-17T15:32:51;5.97;;;2.92;;
10596;SDS011;5346;48.766;8.674;2024-03-17T15:35:27;3.67;;;2.15;;
10596;SDS011;5346;48.766;8.674;2024-03-17T15:38:02;5.00;;;2.22;;
10596;SDS011;5346;48.766;8.674;2024-03-17T15:40:37;5.38;;;2.28;;